Cairns International Airport
YBCS : now visible

Airfield :











YOU CAN JOIN US ON...

 
LOGIN :

Register | Disclaimer

   EN    FR    IT 

 









Legend :    VFR   Marginal VFR   IFR   Intensive IFR   Very Intensive IFR
Visi :
Ceiling :
>= 8 km
>= 3000ft
5 to 8 km
1000 to 3000 ft
1500m to 5 km
500 to 1000 ft
800 to 1500m
200 to 500 ft
< 800m
< 200 ft
Symbols :   Thunderstorms  Fog  Heavy snow  Heavy precipitations  Wind > 20 kt






- Airport Elevation : 10 ft
- IATA code : CNS


YBCS - Cairns International

CURRENT METAR :
  • 240621Z AUTO 34009KT 9999 // SCT014 SCT029 OVC037 27/25 Q1007 TEMPO 0621/0921 3000 SHRA BKN005

EXPIRED METARs :
  • 240600Z AUTO 35009KT 9999 // BKN012 OVC018 27/25 Q1007 TEMPO 0600/0900 3000 SHRA BKN005
  • 240530Z AUTO 33011KT 9999 // BKN012 BKN025 BKN031 28/26 Q1007 RERA
  • 240500Z AUTO 33009KT 9999 -RA SCT010 BKN014 BKN027 27/26 Q1008 RERA TEMPO 0500/0800 3000 SHRA BKN005
  • 240444Z AUTO 32009KT 9999 SHRA SCT016 BKN027 BKN039 26/25 Q1008
  • 240430Z AUTO 31007KT 3600 +SHRA SCT008 SCT019 BKN049 26/25 Q1008 TEMPO 0430/0730 3000 SHRA BKN005
  • 240400Z AUTO 27002KT 2500 +SHRA SCT006 BKN011 BKN022 27/26 Q1008 TEMPO 0400/0700 3000 SHRA BKN005
  • 240330Z AUTO 27005KT 9999 -SHRA SCT006 OVC013 OVC020 26/25 Q1008 RESHRA TEMPO 0330/0630 3000 SHRA BKN005

TAF AMD TAF YBCS
Valid from the 24 at 06:00 until the 25 at 06:00 UTC


240604Z 2406/2506 33012KT 9999 -SHRA SCT010 BKN025
FM241200 VRB03KT 9999 -SHRA SCT010 BKN020
FM250000 09010KT 9999 -SHRA SCT025
TEMPO 2406/2412 3000 SHRA BKN005 INTER 2412/2422 3000 SHRA BKN005 INTER 2500/2505 3000 SHRA BKN010
PROB30
TEMPO 2406/2506 VRB20G35KT 1000 TSRA BKN005 SCT020CB



MET'MAP, your aeronautical weather chart ! - Copyright ORBIFLY December 2007 - Disclaimer

ORBIFLY MET'MAP TEAM :

Programming & Development : Alexandra Zaïnal
Concept & original design : Baudouin d'Aumeries
Assistance for programming : Marc-Olivier Méhu
Technical & hardware support : Manuel Goepfert

Contact : metmap@orbifly.com




SOURCES & CREDITS :

   NOAA       Earth
Advisory